Time;durP1;ratioP1;P1;durP2;ratioP2;P2;SDS_P1;SDS_P2;PMS_P1;PMS_P2;Temp;Humidity;BMP_temperature;BMP_pressure;BME280_temperature;BME280_humidity;BME280_pressure;Samples;Min_cycle;Max_cycle;Signal;HPM_P1;HPM_P2
2021/07/07 00:00:07;;;;;;;6.97;2.23;;;19.30;73.80;;;;;;5094160;28;20462;-69
2021/07/07 00:02:34;;;;;;;8.43;2.27;;;19.40;73.90;;;;;;5094390;28;20451;-69
2021/07/07 00:05:01;;;;;;;6.33;2.30;;;19.40;73.60;;;;;;5094310;28;20448;-69
2021/07/07 00:07:29;;;;;;;5.77;2.20;;;19.40;73.40;;;;;;5094145;28;20495;-69
2021/07/07 00:09:56;;;;;;;1.97;1.63;;;19.40;73.60;;;;;;5093846;28;20455;-69
2021/07/07 00:12:23;;;;;;;8.17;2.63;;;19.30;73.80;;;;;;5094116;28;20512;-69
2021/07/07 00:14:49;;;;;;;3.60;1.87;;;19.30;73.60;;;;;;5093691;28;20984;-69
2021/07/07 00:17:16;;;;;;;7.20;2.00;;;19.30;73.80;;;;;;5093764;28;20933;-69
2021/07/07 00:19:43;;;;;;;3.20;2.00;;;19.20;73.20;;;;;;5094022;28;20486;-69
2021/07/07 00:22:10;;;;;;;4.07;1.70;;;19.30;73.50;;;;;;5094060;28;20790;-69
2021/07/07 00:24:38;;;;;;;3.50;1.90;;;19.20;73.70;;;;;;5093754;28;21025;-69
2021/07/07 00:27:05;;;;;;;3.47;1.67;;;19.20;74.40;;;;;;5094090;28;20875;-69
2021/07/07 00:29:31;;;;;;;2.50;1.40;;;19.20;74.80;;;;;;5093921;28;20471;-69
2021/07/07 00:31:58;;;;;;;4.20;1.83;;;19.20;75.00;;;;;;5093908;28;20455;-69
2021/07/07 00:34:25;;;;;;;6.80;1.70;;;19.20;74.80;;;;;;5093801;28;20487;-69
2021/07/07 00:36:52;;;;;;;6.47;1.97;;;19.20;74.90;;;;;;5093871;28;20447;-69
2021/07/07 00:39:18;;;;;;;2.97;1.73;;;19.20;75.10;;;;;;5093765;28;20826;-69
2021/07/07 00:41:46;;;;;;;5.47;1.93;;;19.20;74.90;;;;;;5093517;28;20444;-69
2021/07/07 00:44:13;;;;;;;4.50;2.13;;;19.20;75.00;;;;;;5093406;28;20443;-66
2021/07/07 00:46:41;;;;;;;5.23;2.20;;;19.20;74.10;;;;;;5093691;28;20443;-66
2021/07/07 00:49:09;;;;;;;5.73;2.10;;;19.20;74.00;;;;;;5093273;28;20977;-66
2021/07/07 00:51:36;;;;;;;3.50;1.53;;;19.20;74.10;;;;;;5093650;28;20455;-66
2021/07/07 00:54:03;;;;;;;4.60;1.93;;;19.10;73.60;;;;;;5093579;28;20476;-66
2021/07/07 00:56:29;;;;;;;3.87;2.13;;;19.10;73.70;;;;;;5093598;28;20432;-66
2021/07/07 00:58:58;;;;;;;4.17;1.90;;;19.10;74.30;;;;;;5093513;28;20500;-66
2021/07/07 01:01:26;;;;;;;4.47;1.80;;;19.10;74.30;;;;;;5093576;28;20443;-66
2021/07/07 01:03:53;;;;;;;7.70;2.30;;;19.00;74.50;;;;;;5093575;28;20444;-66
2021/07/07 01:06:20;;;;;;;5.93;1.80;;;19.10;74.70;;;;;;5093455;28;20447;-66
2021/07/07 01:08:46;;;;;;;4.23;2.30;;;19.10;74.70;;;;;;5093069;28;20471;-66
2021/07/07 01:11:13;;;;;;;8.90;2.07;;;19.10;73.90;;;;;;5093451;28;20443;-66
2021/07/07 01:13:41;;;;;;;3.00;1.87;;;19.00;73.70;;;;;;5093345;28;20475;-66
2021/07/07 01:16:09;;;;;;;2.53;1.57;;;19.00;73.70;;;;;;5093096;28;20938;-67
2021/07/07 01:18:37;;;;;;;4.30;2.10;;;19.00;73.90;;;;;;5093262;28;20464;-67
2021/07/07 01:21:05;;;;;;;3.80;1.80;;;18.90;73.80;;;;;;5093363;28;20451;-67
2021/07/07 01:23:33;;;;;;;14.33;2.77;;;18.90;74.10;;;;;;5093027;28;20447;-67
2021/07/07 01:26:01;;;;;;;6.50;2.50;;;18.90;74.00;;;;;;5093280;28;20447;-67
2021/07/07 01:28:28;;;;;;;8.37;2.20;;;18.90;74.30;;;;;;5097220;28;20463;-67
2021/07/07 01:30:56;;;;;;;7.43;2.17;;;18.90;74.90;;;;;;5097250;28;20446;-67
2021/07/07 01:33:23;;;;;;;2.90;1.67;;;18.90;75.00;;;;;;5097188;28;20817;-67
2021/07/07 01:35:50;;;;;;;5.00;1.90;;;18.90;75.10;;;;;;5097120;28;20444;-67
2021/07/07 01:38:16;;;;;;;5.23;2.00;;;18.90;75.20;;;;;;5097068;28;20472;-67
2021/07/07 01:40:45;;;;;;;4.90;2.00;;;18.90;75.30;;;;;;5096771;28;20517;-67
2021/07/07 01:43:11;;;;;;;4.90;2.17;;;18.90;75.20;;;;;;5097010;28;20440;-67
2021/07/07 01:45:38;;;;;;;5.50;2.40;;;18.90;74.70;;;;;;5096657;28;20444;-67
2021/07/07 01:48:05;;;;;;;7.63;2.30;;;18.90;74.70;;;;;;5096663;28;20463;-67
2021/07/07 01:50:32;;;;;;;4.77;2.40;;;18.80;74.80;;;;;;5096759;28;20470;-66
2021/07/07 01:52:59;;;;;;;3.67;2.10;;;18.80;75.00;;;;;;5096771;28;20475;-66
2021/07/07 01:55:26;;;;;;;4.83;2.23;;;18.80;74.90;;;;;;5096792;28;20817;-66
2021/07/07 01:57:55;;;;;;;3.07;2.70;;;18.80;74.80;;;;;;5096431;28;20965;-66
2021/07/07 02:00:24;;;;;;;5.23;2.27;;;18.70;74.60;;;;;;5096720;28;20450;-66
2021/07/07 02:02:51;;;;;;;8.80;2.63;;;18.70;74.70;;;;;;5096684;28;20454;-66
2021/07/07 02:05:21;;;;;;;6.40;2.17;;;18.60;74.70;;;;;;5096648;28;20454;-66
2021/07/07 02:07:48;;;;;;;6.30;2.33;;;18.60;74.70;;;;;;5096285;28;20475;-66
2021/07/07 02:10:17;;;;;;;11.90;2.80;;;18.50;74.60;;;;;;5096559;28;20443;-66
2021/07/07 02:12:44;;;;;;;8.53;2.90;;;18.50;75.10;;;;;;5096491;28;20452;-66
2021/07/07 02:15:15;;;;;;;6.57;2.50;;;18.40;75.00;;;;;;5096184;28;20925;-66
2021/07/07 02:17:42;;;;;;;11.17;3.10;;;18.30;75.60;;;;;;5096375;28;20460;-66
2021/07/07 02:20:12;;;;;;;6.43;2.70;;;18.30;75.80;;;;;;5096385;28;20443;-67
2021/07/07 02:22:40;;;;;;;7.50;2.67;;;18.20;76.00;;;;;;5096385;28;20440;-66
2021/07/07 02:25:09;;;;;;;7.27;2.60;;;18.20;76.50;;;;;;5096326;28;20447;-66
2021/07/07 02:27:35;;;;;;;6.60;2.40;;;18.10;76.40;;;;;;5096215;28;20443;-66
2021/07/07 02:30:04;;;;;;;5.20;2.23;;;18.10;76.90;;;;;;5096206;28;20440;-66
2021/07/07 02:32:32;;;;;;;5.20;3.27;;;18.10;77.30;;;;;;5095869;28;20941;-66
2021/07/07 02:34:58;;;;;;;6.67;2.67;;;18.00;77.40;;;;;;5095986;28;20484;-66
2021/07/07 02:37:25;;;;;;;8.33;2.70;;;18.00;77.10;;;;;;5095255;28;20436;-66
2021/07/07 02:39:52;;;;;;;7.90;3.30;;;17.90;77.20;;;;;;5095080;28;20439;-66
2021/07/07 02:42:19;;;;;;;6.80;2.40;;;17.90;77.70;;;;;;5095704;28;20920;-66
2021/07/07 02:44:46;;;;;;;6.13;2.00;;;17.80;78.00;;;;;;5095902;28;20446;-66
2021/07/07 02:47:12;;;;;;;6.80;2.73;;;17.70;78.30;;;;;;5095575;28;20804;-66
2021/07/07 02:49:40;;;;;;;5.97;2.47;;;17.60;78.60;;;;;;5095699;28;20492;-66
2021/07/07 02:52:07;;;;;;;9.93;2.60;;;17.60;78.70;;;;;;5095374;28;20854;-66
2021/07/07 02:54:34;;;;;;;9.23;2.77;;;17.50;78.90;;;;;;5095604;28;20503;-66
2021/07/07 02:57:01;;;;;;;6.53;2.20;;;17.40;79.60;;;;;;5095670;28;20439;-66
2021/07/07 02:59:28;;;;;;;5.40;2.70;;;17.40;79.70;;;;;;5095498;28;20909;-66
2021/07/07 03:01:55;;;;;;;7.97;3.17;;;17.30;80.20;;;;;;5095601;28;20448;-66
2021/07/07 03:04:21;;;;;;;6.27;2.37;;;17.30;80.50;;;;;;5095219;28;20934;-67
2021/07/07 03:06:50;;;;;;;9.00;2.40;;;17.30;80.70;;;;;;5095455;28;20440;-67
2021/07/07 03:09:16;;;;;;;5.83;2.70;;;17.30;81.40;;;;;;5095907;28;20460;-67
2021/07/07 03:11:43;;;;;;;7.00;2.20;;;17.30;81.00;;;;;;5095407;28;20424;-67
2021/07/07 03:14:10;;;;;;;5.77;2.73;;;17.30;81.00;;;;;;5094923;28;20475;-67
2021/07/07 03:16:36;;;;;;;5.83;2.40;;;17.30;81.00;;;;;;5095263;28;20451;-67
2021/07/07 03:19:03;;;;;;;7.43;2.30;;;17.40;80.90;;;;;;5095147;28;20490;-67
2021/07/07 03:21:30;;;;;;;6.30;2.63;;;17.40;81.00;;;;;;5095021;28;20448;-67
2021/07/07 03:23:58;;;;;;;6.33;2.50;;;17.40;80.70;;;;;;5094971;28;20444;-67
2021/07/07 03:26:25;;;;;;;9.67;2.00;;;17.40;80.70;;;;;;5094789;28;20444;-67
2021/07/07 03:28:52;;;;;;;6.80;2.83;;;17.50;80.80;;;;;;5094953;28;20475;-67
2021/07/07 03:31:18;;;;;;;8.40;2.97;;;17.40;80.50;;;;;;5094979;28;20447;-66
2021/07/07 03:33:45;;;;;;;8.43;2.77;;;17.40;80.40;;;;;;5094846;28;20476;-66
2021/07/07 03:36:12;;;;;;;7.73;2.50;;;17.30;80.80;;;;;;5094910;28;20443;-66
2021/07/07 03:38:39;;;;;;;10.30;2.50;;;17.30;81.50;;;;;;5094794;28;20463;-66
2021/07/07 03:41:07;;;;;;;4.57;2.47;;;17.20;81.20;;;;;;5094787;28;20460;-66
2021/07/07 03:43:33;;;;;;;6.00;2.23;;;17.20;81.70;;;;;;5094757;28;20447;-66
2021/07/07 03:46:00;;;;;;;9.03;2.93;;;17.20;82.00;;;;;;5094353;28;20834;-66
2021/07/07 03:48:27;;;;;;;6.87;2.30;;;17.20;82.40;;;;;;5094585;28;20472;-66
2021/07/07 03:50:54;;;;;;;5.07;2.43;;;17.20;82.40;;;;;;5094194;28;20451;-66
2021/07/07 03:53:20;;;;;;;8.17;2.80;;;17.20;82.30;;;;;;5094733;28;20902;-66
2021/07/07 03:55:47;;;;;;;10.13;3.10;;;17.20;82.20;;;;;;5094520;28;20450;-66
2021/07/07 03:58:15;;;;;;;6.23;2.77;;;17.20;82.10;;;;;;5094141;28;20980;-66
2021/07/07 04:00:42;;;;;;;5.90;2.50;;;17.20;82.30;;;;;;5094277;28;20443;-66
2021/07/07 04:03:09;;;;;;;5.97;2.80;;;17.20;82.20;;;;;;5093901;28;20440;-66
2021/07/07 04:05:35;;;;;;;6.60;3.27;;;17.20;82.60;;;;;;5094315;28;20438;-66
2021/07/07 04:08:02;;;;;;;8.13;2.37;;;17.20;82.60;;;;;;5093947;28;20585;-66
2021/07/07 04:10:29;;;;;;;6.93;2.90;;;17.20;82.50;;;;;;5093936;28;20455;-66
2021/07/07 04:12:56;;;;;;;8.53;3.07;;;17.20;82.80;;;;;;5094339;28;20448;-66
2021/07/07 04:15:24;;;;;;;5.67;2.50;;;17.20;82.70;;;;;;5094092;28;20490;-66
2021/07/07 04:17:51;;;;;;;5.00;3.20;;;17.20;82.60;;;;;;5094123;28;20474;-66
2021/07/07 04:20:19;;;;;;;5.67;1.97;;;17.20;82.60;;;;;;5093837;28;20444;-66
2021/07/07 04:22:47;;;;;;;6.00;2.37;;;17.20;83.00;;;;;;5094095;28;20447;-66
2021/07/07 04:25:15;;;;;;;8.40;2.80;;;17.20;83.20;;;;;;5094089;28;20831;-66
2021/07/07 04:27:42;;;;;;;14.17;2.83;;;17.30;84.30;;;;;;5093933;28;20449;-66
2021/07/07 04:30:11;;;;;;;6.70;2.90;;;17.20;86.80;;;;;;5093732;28;20451;-66
2021/07/07 04:32:40;;;;;;;7.43;2.67;;;17.20;83.00;;;;;;5093984;28;20444;-66
2021/07/07 04:35:08;;;;;;;4.87;2.50;;;17.20;83.00;;;;;;5093849;28;20514;-67
2021/07/07 04:37:35;;;;;;;6.50;2.83;;;17.20;83.20;;;;;;5093798;28;20452;-66
2021/07/07 04:40:02;;;;;;;9.20;2.40;;;17.30;83.20;;;;;;5094963;28;20447;-66
2021/07/07 04:42:29;;;;;;;5.87;2.33;;;17.30;83.30;;;;;;5093889;28;20432;-66
2021/07/07 04:44:55;;;;;;;6.73;2.50;;;17.40;83.20;;;;;;5093840;28;20450;-66
2021/07/07 04:47:22;;;;;;;10.53;2.93;;;17.40;82.70;;;;;;5093589;28;20561;-66
2021/07/07 04:49:50;;;;;;;3.80;2.23;;;17.50;83.10;;;;;;5093480;28;20458;-66
2021/07/07 04:52:17;;;;;;;7.47;2.63;;;17.50;82.80;;;;;;5093253;28;20478;-66
2021/07/07 04:54:44;;;;;;;5.93;2.40;;;17.60;82.60;;;;;;5093042;28;20985;-66
2021/07/07 04:57:10;;;;;;;10.07;2.93;;;17.50;82.70;;;;;;5093215;28;20439;-66
2021/07/07 04:59:37;;;;;;;9.37;3.10;;;17.60;82.50;;;;;;5094037;28;20468;-68
2021/07/07 05:02:04;;;;;;;5.17;2.07;;;17.60;82.50;;;;;;5093084;28;20432;-66
2021/07/07 05:04:31;;;;;;;6.93;3.40;;;17.70;82.90;;;;;;5096420;28;20432;-63
2021/07/07 05:07:00;;;;;;;6.60;2.73;;;17.70;82.90;;;;;;5093343;28;20451;-63
2021/07/07 05:09:26;;;;;;;8.90;2.60;;;17.70;82.90;;;;;;5093429;28;20463;-63
2021/07/07 05:11:53;;;;;;;5.43;2.40;;;17.80;83.40;;;;;;5093160;28;20440;-63
2021/07/07 05:14:20;;;;;;;7.83;2.37;;;17.80;83.00;;;;;;5093051;28;21023;-63
2021/07/07 05:16:47;;;;;;;11.70;2.97;;;17.90;82.90;;;;;;5093464;28;20443;-63
2021/07/07 05:19:13;;;;;;;9.20;2.37;;;17.90;83.10;;;;;;5093340;28;20464;-63
2021/07/07 05:21:42;;;;;;;3.03;2.17;;;18.00;83.00;;;;;;5093271;28;20439;-63
2021/07/07 05:24:10;;;;;;;5.30;2.27;;;18.10;82.90;;;;;;5092934;28;20937;-64
2021/07/07 05:26:37;;;;;;;5.17;2.30;;;18.10;82.20;;;;;;5093089;28;20455;-64
2021/07/07 05:29:04;;;;;;;6.83;2.20;;;18.20;82.30;;;;;;5093223;28;20468;-64
2021/07/07 05:31:31;;;;;;;6.90;2.50;;;18.20;82.20;;;;;;5093294;28;20448;-64
2021/07/07 05:33:58;;;;;;;4.03;2.33;;;18.20;82.60;;;;;;5092903;28;20926;-64
2021/07/07 05:36:24;;;;;;;6.47;2.77;;;18.30;82.00;;;;;;5093279;28;20428;-64
2021/07/07 05:38:51;;;;;;;7.87;2.30;;;18.30;82.20;;;;;;5093155;28;20468;-65
2021/07/07 05:41:19;;;;;;;8.47;2.47;;;18.40;81.90;;;;;;5093181;28;20428;-65
2021/07/07 05:43:52;;;;;;;6.97;2.50;;;18.50;80.90;;;;;;5093101;28;20448;-65
2021/07/07 05:46:19;;;;;;;13.27;2.80;;;18.50;81.50;;;;;;5093101;28;20515;-65
2021/07/07 05:48:46;;;;;;;7.17;2.90;;;18.70;80.80;;;;;;5092974;28;20470;-65
2021/07/07 05:51:13;;;;;;;8.70;3.03;;;18.80;81.00;;;;;;5093014;28;20447;-65
2021/07/07 05:53:40;;;;;;;5.33;3.13;;;18.80;80.50;;;;;;5092992;28;20443;-65
2021/07/07 05:56:07;;;;;;;6.80;2.83;;;18.90;80.50;;;;;;5092631;28;20996;-65
2021/07/07 05:58:35;;;;;;;11.27;2.70;;;19.00;80.20;;;;;;5093036;28;20459;-65
2021/07/07 06:01:02;;;;;;;7.67;2.30;;;19.00;80.00;;;;;;5092973;28;20444;-65
2021/07/07 06:03:29;;;;;;;9.63;3.00;;;19.10;79.40;;;;;;5092817;28;20902;-65
2021/07/07 06:05:55;;;;;;;7.40;2.57;;;19.20;79.80;;;;;;5092796;28;20447;-65
2021/07/07 06:08:22;;;;;;;5.97;2.47;;;19.20;80.20;;;;;;5092548;28;20475;-65
2021/07/07 06:10:49;;;;;;;14.53;3.40;;;19.20;79.00;;;;;;5093014;28;20784;-65
2021/07/07 06:13:15;;;;;;;9.73;3.43;;;19.30;78.80;;;;;;5094688;28;20443;-65
2021/07/07 06:15:44;;;;;;;11.70;3.33;;;19.30;79.30;;;;;;5096425;28;20487;-65
2021/07/07 06:18:10;;;;;;;8.03;2.93;;;19.30;79.30;;;;;;5096381;28;20456;-65
2021/07/07 06:20:37;;;;;;;6.07;3.63;;;19.40;79.10;;;;;;5096477;28;20444;-65
2021/07/07 06:23:04;;;;;;;6.57;2.50;;;19.40;78.80;;;;;;5096399;28;20440;-65
2021/07/07 06:25:31;;;;;;;11.07;3.17;;;19.50;79.00;;;;;;5096326;28;20432;-65
2021/07/07 06:28:00;;;;;;;8.07;2.90;;;19.60;78.20;;;;;;5095815;28;20831;-65
2021/07/07 06:30:28;;;;;;;13.30;3.50;;;19.60;78.20;;;;;;5096204;28;20463;-65
2021/07/07 06:32:59;;;;;;;8.10;2.70;;;19.60;78.40;;;;;;5095868;28;20444;-65
2021/07/07 06:35:29;;;;;;;4.30;2.50;;;19.80;78.50;;;;;;5096213;28;20467;-65
2021/07/07 06:37:57;;;;;;;4.50;2.10;;;19.90;77.90;;;;;;5095923;28;20474;-65
2021/07/07 06:40:24;;;;;;;6.20;2.03;;;20.00;77.30;;;;;;5095967;28;20874;-65
2021/07/07 06:42:52;;;;;;;7.83;2.43;;;20.20;76.50;;;;;;5095994;28;20531;-65
2021/07/07 06:45:20;;;;;;;6.53;2.30;;;20.30;75.70;;;;;;5095923;28;20436;-65
2021/07/07 06:47:47;;;;;;;8.17;2.30;;;20.30;74.20;;;;;;5095821;28;20467;-65
2021/07/07 06:50:17;;;;;;;4.93;2.00;;;20.40;74.10;;;;;;5095540;28;20948;-65
2021/07/07 06:52:44;;;;;;;9.57;2.10;;;20.50;72.50;;;;;;5095840;28;20423;-65
2021/07/07 06:55:12;;;;;;;10.20;2.30;;;20.60;73.40;;;;;;5095664;28;20484;-65
2021/07/07 06:57:39;;;;;;;5.90;2.17;;;20.60;72.40;;;;;;5095675;28;20428;-65
2021/07/07 07:00:09;;;;;;;9.10;2.67;;;20.70;71.60;;;;;;5095634;28;20454;-65
2021/07/07 07:02:35;;;;;;;6.63;2.23;;;20.90;72.10;;;;;;5095523;28;20447;-65
2021/07/07 07:05:02;;;;;;;6.47;1.90;;;21.00;70.70;;;;;;5095583;28;20420;-65
2021/07/07 07:07:30;;;;;;;7.43;2.47;;;21.20;71.40;;;;;;5095099;28;20819;-65
2021/07/07 07:09:59;;;;;;;7.50;2.00;;;21.30;70.40;;;;;;5095470;28;20461;-65
2021/07/07 07:12:26;;;;;;;4.43;2.17;;;21.40;69.40;;;;;;5095077;28;20841;-65
2021/07/07 07:14:53;;;;;;;4.20;2.43;;;21.50;67.60;;;;;;5095258;28;20491;-65
2021/07/07 07:17:21;;;;;;;10.73;2.53;;;21.60;67.70;;;;;;5095558;28;20448;-65
2021/07/07 07:19:47;;;;;;;7.73;2.37;;;21.70;67.20;;;;;;5095195;28;20470;-65
2021/07/07 07:22:14;;;;;;;8.80;2.00;;;21.90;67.30;;;;;;5095482;28;20440;-65
2021/07/07 07:24:43;;;;;;;8.50;2.60;;;22.00;67.00;;;;;;5094439;28;20449;-65
2021/07/07 07:27:09;;;;;;;5.90;2.47;;;22.10;66.50;;;;;;5094994;28;20439;-65
2021/07/07 07:29:37;;;;;;;6.23;2.07;;;22.20;67.70;;;;;;5095209;28;20469;-65
2021/07/07 07:32:04;;;;;;;10.13;2.17;;;22.30;68.20;;;;;;5094816;28;20428;-65
2021/07/07 07:34:31;;;;;;;8.57;2.27;;;22.50;67.00;;;;;;5095005;28;20449;-65
2021/07/07 07:37:01;;;;;;;8.30;2.80;;;22.60;65.70;;;;;;5095880;28;20449;-65
2021/07/07 07:39:29;;;;;;;10.83;3.03;;;22.70;67.70;;;;;;5095606;28;20954;-65
2021/07/07 07:42:00;;;;;;;3.20;1.93;;;22.90;69.10;;;;;;5094737;28;21010;-65
2021/07/07 07:44:26;;;;;;;8.50;2.33;;;22.90;68.50;;;;;;5094631;28;20451;-65
2021/07/07 07:46:56;;;;;;;5.53;2.03;;;23.00;68.40;;;;;;5094790;28;20439;-65
2021/07/07 07:49:23;;;;;;;3.47;1.80;;;23.00;69.20;;;;;;5095208;28;20836;-66
2021/07/07 07:51:50;;;;;;;7.17;1.70;;;;;;;;;;5094628;28;20829;-66
2021/07/07 07:54:17;;;;;;;4.23;1.80;;;23.40;60.20;;;;;;5094638;28;20432;-65
2021/07/07 07:56:44;;;;;;;11.37;3.00;;;23.60;60.30;;;;;;5094232;28;20502;-65
2021/07/07 07:59:13;;;;;;;9.63;2.30;;;23.80;61.30;;;;;;5094461;28;20826;-66
2021/07/07 08:01:40;;;;;;;5.57;2.03;;;23.90;59.00;;;;;;5094561;28;20428;-66
2021/07/07 08:04:07;;;;;;;7.47;2.50;;;24.00;58.20;;;;;;5094409;28;20448;-66
2021/07/07 08:06:34;;;;;;;4.37;2.10;;;24.10;57.60;;;;;;5094077;28;20922;-66
2021/07/07 08:09:01;;;;;;;6.10;1.90;;;24.20;56.60;;;;;;5093874;28;20488;-66
2021/07/07 08:11:28;;;;;;;5.57;2.23;;;24.30;56.80;;;;;;5094275;28;20444;-66
2021/07/07 08:13:54;;;;;;;6.77;2.00;;;24.50;56.90;;;;;;5094231;28;20447;-66
2021/07/07 08:16:23;;;;;;;4.80;2.20;;;24.50;56.80;;;;;;5094105;28;20483;-66
2021/07/07 08:18:50;;;;;;;5.83;1.87;;;24.70;57.20;;;;;;5094380;28;20467;-66
2021/07/07 08:21:19;;;;;;;3.33;1.63;;;25.00;55.70;;;;;;5094137;28;20803;-66
2021/07/07 08:23:46;;;;;;;4.20;1.73;;;25.20;55.60;;;;;;5093776;28;20890;-66
2021/07/07 08:26:13;;;;;;;5.70;2.17;;;25.40;53.80;;;;;;5094859;28;20444;-66
2021/07/07 08:28:40;;;;;;;6.03;1.60;;;25.40;51.70;;;;;;5093959;28;20475;-66
2021/07/07 08:31:06;;;;;;;3.37;1.87;;;25.50;52.70;;;;;;5093987;28;20435;-66
2021/07/07 08:33:35;;;;;;;4.47;1.73;;;25.60;50.20;;;;;;5093992;28;20443;-66
2021/07/07 08:36:02;;;;;;;3.50;1.30;;;25.80;49.60;;;;;;5093752;28;20858;-66
2021/07/07 08:38:29;;;;;;;3.70;1.60;;;25.80;48.90;;;;;;5093797;28;20472;-66
2021/07/07 08:40:56;;;;;;;6.20;1.73;;;25.80;48.10;;;;;;5093812;28;20452;-66
2021/07/07 08:43:24;;;;;;;5.60;1.30;;;25.80;48.40;;;;;;5093734;28;20432;-65
2021/07/07 08:45:53;;;;;;;5.50;1.90;;;25.90;46.40;;;;;;5093827;28;20450;-65
2021/07/07 08:48:20;;;;;;;2.80;1.47;;;25.80;47.30;;;;;;5093905;28;20455;-66
2021/07/07 08:50:48;;;;;;;5.13;1.87;;;25.80;47.10;;;;;;5093887;28;20844;-67
2021/07/07 08:53:16;;;;;;;4.43;1.60;;;25.90;47.30;;;;;;5093693;28;20444;-66
2021/07/07 08:55:46;;;;;;;5.33;1.60;;;26.00;46.80;;;;;;5093507;28;20569;-67
2021/07/07 08:58:12;;;;;;;4.90;1.90;;;26.20;47.60;;;;;;5093262;28;20510;-68
2021/07/07 09:00:40;;;;;;;5.20;2.23;;;26.40;46.40;;;;;;5094150;28;20804;-66
2021/07/07 09:03:10;;;;;;;4.30;1.80;;;26.30;46.00;;;;;;5092995;28;20452;-66
2021/07/07 09:05:52;;;;;;;6.47;1.53;;;26.20;46.10;;;;;;5093393;28;20480;-66
2021/07/07 09:08:28;;;;;;;8.77;1.90;;;26.10;47.40;;;;;;5093235;28;20475;-67
2021/07/07 09:10:56;;;;;;;3.03;1.37;;;26.20;47.60;;;;;;5093157;28;20443;-66
2021/07/07 09:13:24;;;;;;;9.60;2.03;;;26.50;45.60;;;;;;5093459;28;20519;-66
2021/07/07 09:15:52;;;;;;;6.70;1.47;;;26.90;45.20;;;;;;5093342;28;20494;-66
2021/07/07 09:18:21;;;;;;;8.33;2.57;;;27.20;43.80;;;;;;5092784;28;20460;-66
2021/07/07 09:20:49;;;;;;;3.73;2.00;;;27.40;42.70;;;;;;5093288;28;20435;-66
2021/07/07 09:23:19;;;;;;;10.53;2.57;;;27.70;42.90;;;;;;5093383;28;20439;-66
2021/07/07 09:25:52;;;;;;;6.00;1.40;;;27.90;42.00;;;;;;5094147;28;20467;-66
2021/07/07 09:28:22;;;;;;;3.07;1.80;;;27.90;41.40;;;;;;5093003;28;20467;-66
2021/07/07 09:30:48;;;;;;;6.80;1.80;;;27.40;41.50;;;;;;5093205;28;20791;-66
2021/07/07 09:33:15;;;;;;;8.40;1.97;;;27.20;41.90;;;;;;5093318;28;20440;-66
2021/07/07 09:35:42;;;;;;;6.67;2.00;;;27.30;43.70;;;;;;5093236;28;20483;-66
2021/07/07 09:38:11;;;;;;;8.70;2.20;;;27.20;43.10;;;;;;5092993;28;20468;-66
2021/07/07 09:40:45;;;;;;;7.57;1.83;;;26.90;43.60;;;;;;5093043;28;20448;-66
2021/07/07 09:43:13;;;;;;;4.63;1.50;;;26.50;45.20;;;;;;5092912;28;20838;-66
2021/07/07 09:45:45;;;;;;;4.50;1.60;;;26.20;44.80;;;;;;5093779;28;20435;-66
2021/07/07 09:48:14;;;;;;;5.20;1.50;;;26.00;46.40;;;;;;5094683;28;20841;-66
2021/07/07 09:50:42;;;;;;;6.47;1.87;;;25.90;46.70;;;;;;5096914;28;20450;-66
2021/07/07 09:53:13;;;;;;;4.67;1.63;;;25.50;47.40;;;;;;5096932;28;20810;-66
2021/07/07 09:55:40;;;;;;;6.27;1.77;;;25.70;48.30;;;;;;5097200;28;20472;-66
2021/07/07 09:58:07;;;;;;;4.53;1.43;;;25.70;46.20;;;;;;5096803;28;20467;-66
2021/07/07 10:00:38;;;;;;;6.03;1.77;;;25.80;46.40;;;;;;5096353;28;20940;-66
2021/07/07 10:03:06;;;;;;;8.40;1.90;;;26.00;45.90;;;;;;5096964;28;20440;-66
2021/07/07 10:05:39;;;;;;;6.60;1.93;;;26.40;45.40;;;;;;5096664;28;20506;-67
2021/07/07 10:08:07;;;;;;;5.63;1.70;;;27.00;44.60;;;;;;5096612;28;20467;-67
2021/07/07 10:10:36;;;;;;;4.83;1.57;;;27.60;42.30;;;;;;5096545;28;20451;-66
2021/07/07 10:13:03;;;;;;;4.93;1.60;;;28.00;42.20;;;;;;5096726;28;20518;-66
2021/07/07 10:15:29;;;;;;;3.63;1.70;;;28.30;41.20;;;;;;5096536;28;20450;-67
2021/07/07 10:17:56;;;;;;;2.77;1.37;;;28.40;40.70;;;;;;5096146;28;20475;-67
2021/07/07 10:20:23;;;;;;;4.20;1.60;;;28.20;38.90;;;;;;5096391;28;20428;-67
2021/07/07 10:22:52;;;;;;;3.97;1.60;;;28.00;39.70;;;;;;5097077;28;20454;-66
2021/07/07 10:25:21;;;;;;;6.50;1.80;;;28.00;41.00;;;;;;5096463;28;20435;-67
2021/07/07 10:27:49;;;;;;;6.80;1.97;;;27.80;40.50;;;;;;5097165;28;20467;-69
2021/07/07 10:30:17;;;;;;;5.73;1.93;;;27.70;41.10;;;;;;5096166;28;20435;-70
2021/07/07 10:33:08;;;;;;;4.60;1.60;;;27.60;41.80;;;;;;5096293;28;20454;-70
2021/07/07 10:35:35;;;;;;;3.73;1.67;;;27.40;42.00;;;;;;5096220;28;20464;-70
2021/07/07 10:38:06;;;;;;;4.03;1.90;;;27.40;42.80;;;;;;5096104;28;20468;-70
2021/07/07 10:40:34;;;;;;;14.87;1.90;;;27.80;43.30;;;;;;5096002;28;20420;-70
2021/07/07 10:43:03;;;;;;;5.47;1.70;;;28.50;41.60;;;;;;5095650;28;20945;-70
2021/07/07 10:45:34;;;;;;;7.53;2.40;;;29.30;40.90;;;;;;5095942;28;20432;-70
2021/07/07 10:48:37;;;;;;;5.33;2.30;;;30.20;37.40;;;;;;5095790;28;20463;-70
2021/07/07 10:51:25;;;;;;;3.43;1.30;;;30.90;36.90;;;;;;5095595;28;20601;-70
2021/07/07 10:53:53;;;;;;;7.97;1.83;;;31.30;34.10;;;;;;5095479;28;20450;-70
2021/07/07 10:56:45;;;;;;;7.47;1.90;;;32.00;34.20;;;;;;5095628;28;20544;-70
2021/07/07 10:59:31;;;;;;;5.33;1.90;;;32.80;32.10;;;;;;5094433;28;20467;-70
2021/07/07 11:02:05;;;;;;;3.60;1.50;;;33.40;29.90;;;;;;5095354;28;20446;-70
2021/07/07 11:04:36;;;;;;;4.23;1.80;;;33.10;29.00;;;;;;5095605;28;20435;-70
2021/07/07 11:07:25;;;;;;;3.10;1.50;;;32.50;31.20;;;;;;5095036;28;20956;-70
2021/07/07 11:09:53;;;;;;;3.17;1.40;;;31.60;32.40;;;;;;5096664;28;20463;-70
2021/07/07 11:12:25;;;;;;;5.10;1.60;;;30.30;33.30;;;;;;5096140;28;20459;-70
2021/07/07 11:15:06;;;;;;;4.13;1.40;;;29.80;36.00;;;;;;5095422;28;20428;-70
2021/07/07 11:17:34;;;;;;;3.47;1.67;;;29.60;36.90;;;;;;5095264;28;20464;-70
2021/07/07 11:20:07;;;;;;;5.07;2.00;;;29.10;37.10;;;;;;5095073;28;20930;-70
2021/07/07 11:22:35;;;;;;;3.43;1.17;;;28.90;38.60;;;;;;5095393;28;20425;-70
2021/07/07 11:25:04;;;;;;;3.40;1.63;;;28.70;38.20;;;;;;5095218;28;20477;-70
2021/07/07 11:27:33;;;;;;;4.13;1.37;;;28.50;39.40;;;;;;5095140;28;20447;-70
2021/07/07 11:30:00;;;;;;;4.50;1.57;;;28.70;38.10;;;;;;5095231;28;20497;-70
2021/07/07 11:32:30;;;;;;;2.97;1.57;;;28.80;39.60;;;;;;5095133;28;20444;-70
2021/07/07 11:34:58;;;;;;;2.43;1.20;;;28.90;39.50;;;;;;5095148;28;20432;-70
2021/07/07 11:37:26;;;;;;;5.57;1.70;;;28.80;40.60;;;;;;5094795;28;20496;-70
2021/07/07 11:40:09;;;;;;;3.27;1.47;;;29.30;41.60;;;;;;5095005;28;20432;-70
2021/07/07 11:42:52;;;;;;;3.97;1.33;;;30.00;36.80;;;;;;5095138;28;20420;-70
2021/07/07 11:45:20;;;;;;;3.63;1.50;;;31.20;36.10;;;;;;5095291;28;20800;-70
2021/07/07 11:47:52;;;;;;;3.80;1.47;;;32.40;34.50;;;;;;5094450;28;20467;-70
2021/07/07 11:50:20;;;;;;;2.23;1.30;;;33.10;31.00;;;;;;5094967;28;20780;-70
2021/07/07 11:52:56;;;;;;;5.80;1.47;;;33.30;31.30;;;;;;5094399;28;20432;-70
2021/07/07 11:55:41;;;;;;;3.47;1.80;;;34.00;32.20;;;;;;5094501;28;20913;-70
2021/07/07 11:58:11;;;;;;;5.70;1.60;;;34.00;30.00;;;;;;5079727;28;20498;-70
2021/07/07 12:00:37;;;;;;;2.47;0.97;;;34.00;29.60;;;;;;5094242;28;20928;-70
2021/07/07 12:03:04;;;;;;;3.23;1.80;;;33.70;28.30;;;;;;5094571;28;20508;-70
2021/07/07 12:05:31;;;;;;;6.77;1.70;;;33.10;29.80;;;;;;5094150;28;20455;-70
2021/07/07 12:08:13;;;;;;;2.30;1.27;;;32.40;31.00;;;;;;5094111;28;20467;-70
2021/07/07 12:10:40;;;;;;;4.63;1.73;;;31.80;32.20;;;;;;5094079;28;20431;-70
2021/07/07 12:13:21;;;;;;;4.93;1.80;;;31.50;31.60;;;;;;5094383;28;20439;-70
2021/07/07 12:15:48;;;;;;;9.00;1.70;;;31.30;34.70;;;;;;5094330;28;20443;-70
2021/07/07 12:18:24;;;;;;;5.10;1.30;;;30.70;34.40;;;;;;5093798;28;20900;-70
2021/07/07 12:20:50;;;;;;;4.30;1.43;;;30.60;36.20;;;;;;5095193;28;20436;-70
2021/07/07 12:23:17;;;;;;;1.93;1.30;;;30.50;35.50;;;;;;5094098;28;20451;-70
2021/07/07 12:25:44;;;;;;;1.27;0.90;;;30.80;35.60;;;;;;5094144;28;20447;-70
2021/07/07 12:28:11;;;;;;;2.90;1.23;;;31.30;33.60;;;;;;5093967;28;20472;-70
2021/07/07 12:30:39;;;;;;;2.83;1.50;;;32.00;33.40;;;;;;5094085;28;20450;-70
2021/07/07 12:33:06;;;;;;;3.17;0.90;;;33.10;30.00;;;;;;5093920;28;20443;-70
2021/07/07 12:35:33;;;;;;;1.33;1.07;;;33.80;29.20;;;;;;5094138;28;20817;-70
2021/07/07 12:38:00;;;;;;;1.60;1.37;;;34.60;29.80;;;;;;5093844;28;20487;-70
2021/07/07 12:40:27;;;;;;;4.30;1.10;;;36.00;28.50;;;;;;5093947;28;20458;-70
2021/07/07 12:42:55;;;;;;;3.23;1.30;;;36.40;25.10;;;;;;5093879;28;20451;-70
2021/07/07 12:45:25;;;;;;;6.43;1.20;;;36.00;25.40;;;;;;5094096;28;20885;-70
2021/07/07 12:48:05;;;;;;;3.10;1.33;;;35.90;26.80;;;;;;5093913;28;20546;-71
2021/07/07 12:50:35;;;;;;;2.43;1.10;;;36.10;27.70;;;;;;5093827;28;20429;-70